sensor_id;sensor_type;location;lat;lon;timestamp;temperature;humidity
22742;DHT22;11538;48.884;8.696;2024-03-07T00:00:11;8.00;99.90
22742;DHT22;11538;48.884;8.696;2024-03-07T00:02:50;8.10;99.90
22742;DHT22;11538;48.884;8.696;2024-03-07T00:05:21;8.10;99.90
22742;DHT22;11538;48.884;8.696;2024-03-07T00:07:52;8.10;99.90
22742;DHT22;11538;48.884;8.696;2024-03-07T00:10:20;8.10;99.90
22742;DHT22;11538;48.884;8.696;2024-03-07T00:12:48;8.10;99.90
22742;DHT22;11538;48.884;8.696;2024-03-07T00:15:15;8.10;99.90
22742;DHT22;11538;48.884;8.696;2024-03-07T00:17:42;8.00;99.90
22742;DHT22;11538;48.884;8.696;2024-03-07T00:20:10;8.00;99.90
22742;DHT22;11538;48.884;8.696;2024-03-07T00:22:42;8.00;99.90
22742;DHT22;11538;48.884;8.696;2024-03-07T00:25:10;8.00;99.90
22742;DHT22;11538;48.884;8.696;2024-03-07T00:27:39;8.00;99.90
22742;DHT22;11538;48.884;8.696;2024-03-07T00:30:07;8.00;99.90
22742;DHT22;11538;48.884;8.696;2024-03-07T00:32:35;8.00;99.90
22742;DHT22;11538;48.884;8.696;2024-03-07T00:35:07;8.00;99.90
22742;DHT22;11538;48.884;8.696;2024-03-07T00:37:37;8.00;99.90
22742;DHT22;11538;48.884;8.696;2024-03-07T00:40:04;8.00;99.90
22742;DHT22;11538;48.884;8.696;2024-03-07T00:42:31;7.90;99.90
22742;DHT22;11538;48.884;8.696;2024-03-07T00:44:58;8.00;99.90
22742;DHT22;11538;48.884;8.696;2024-03-07T00:47:25;7.90;99.90
22742;DHT22;11538;48.884;8.696;2024-03-07T00:49:52;7.90;99.90
22742;DHT22;11538;48.884;8.696;2024-03-07T00:52:19;7.90;99.90
22742;DHT22;11538;48.884;8.696;2024-03-07T00:54:46;7.90;99.90
22742;DHT22;11538;48.884;8.696;2024-03-07T00:57:12;7.80;99.90
22742;DHT22;11538;48.884;8.696;2024-03-07T00:59:39;7.80;99.90
22742;DHT22;11538;48.884;8.696;2024-03-07T01:02:06;7.80;99.90
22742;DHT22;11538;48.884;8.696;2024-03-07T01:04:33;7.70;99.90
22742;DHT22;11538;48.884;8.696;2024-03-07T01:07:01;7.70;99.90
22742;DHT22;11538;48.884;8.696;2024-03-07T01:09:28;7.70;99.90
22742;DHT22;11538;48.884;8.696;2024-03-07T01:11:55;7.70;99.90
22742;DHT22;11538;48.884;8.696;2024-03-07T01:14:23;7.70;99.90
22742;DHT22;11538;48.884;8.696;2024-03-07T01:16:50;7.70;99.90
22742;DHT22;11538;48.884;8.696;2024-03-07T01:19:17;7.60;99.90
22742;DHT22;11538;48.884;8.696;2024-03-07T01:21:44;7.60;99.90
22742;DHT22;11538;48.884;8.696;2024-03-07T01:24:11;7.60;99.90
22742;DHT22;11538;48.884;8.696;2024-03-07T01:26:38;7.60;99.90
22742;DHT22;11538;48.884;8.696;2024-03-07T01:29:06;7.50;99.90
22742;DHT22;11538;48.884;8.696;2024-03-07T01:31:33;7.50;99.90
22742;DHT22;11538;48.884;8.696;2024-03-07T01:34:01;7.50;99.90
22742;DHT22;11538;48.884;8.696;2024-03-07T01:36:28;7.50;99.90
22742;DHT22;11538;48.884;8.696;2024-03-07T01:38:55;7.50;99.90
22742;DHT22;11538;48.884;8.696;2024-03-07T01:41:22;7.50;99.90
22742;DHT22;11538;48.884;8.696;2024-03-07T01:43:49;7.50;99.90
22742;DHT22;11538;48.884;8.696;2024-03-07T01:46:16;7.50;99.90
22742;DHT22;11538;48.884;8.696;2024-03-07T01:48:43;7.50;99.90
22742;DHT22;11538;48.884;8.696;2024-03-07T01:51:10;7.40;99.90
22742;DHT22;11538;48.884;8.696;2024-03-07T01:53:37;7.40;99.90
22742;DHT22;11538;48.884;8.696;2024-03-07T01:56:05;7.40;99.90
22742;DHT22;11538;48.884;8.696;2024-03-07T01:58:33;7.40;99.90
22742;DHT22;11538;48.884;8.696;2024-03-07T02:01:02;7.30;99.90
22742;DHT22;11538;48.884;8.696;2024-03-07T02:03:29;7.30;99.90
22742;DHT22;11538;48.884;8.696;2024-03-07T02:05:56;7.30;99.90
22742;DHT22;11538;48.884;8.696;2024-03-07T02:08:24;7.30;99.90
22742;DHT22;11538;48.884;8.696;2024-03-07T02:10:51;7.30;99.90
22742;DHT22;11538;48.884;8.696;2024-03-07T02:13:17;7.20;99.90
22742;DHT22;11538;48.884;8.696;2024-03-07T02:15:44;7.20;99.90
22742;DHT22;11538;48.884;8.696;2024-03-07T02:18:11;7.20;99.90
22742;DHT22;11538;48.884;8.696;2024-03-07T02:20:44;7.20;99.90
22742;DHT22;11538;48.884;8.696;2024-03-07T02:23:12;7.10;99.90
22742;DHT22;11538;48.884;8.696;2024-03-07T02:25:39;7.10;99.90
22742;DHT22;11538;48.884;8.696;2024-03-07T02:28:06;7.10;99.90
22742;DHT22;11538;48.884;8.696;2024-03-07T02:30:33;7.10;99.90
22742;DHT22;11538;48.884;8.696;2024-03-07T02:33:00;7.10;99.90
22742;DHT22;11538;48.884;8.696;2024-03-07T02:35:34;7.00;99.90
22742;DHT22;11538;48.884;8.696;2024-03-07T02:38:05;7.00;99.90
22742;DHT22;11538;48.884;8.696;2024-03-07T02:40:32;7.00;99.90
22742;DHT22;11538;48.884;8.696;2024-03-07T02:42:59;6.90;99.90
22742;DHT22;11538;48.884;8.696;2024-03-07T02:45:26;6.90;99.90
22742;DHT22;11538;48.884;8.696;2024-03-07T02:47:53;6.90;99.90
22742;DHT22;11538;48.884;8.696;2024-03-07T02:50:21;6.90;99.90
22742;DHT22;11538;48.884;8.696;2024-03-07T02:52:49;6.90;99.90
22742;DHT22;11538;48.884;8.696;2024-03-07T02:55:17;6.80;99.90
22742;DHT22;11538;48.884;8.696;2024-03-07T02:57:45;6.80;99.90
22742;DHT22;11538;48.884;8.696;2024-03-07T03:00:12;6.80;99.90
22742;DHT22;11538;48.884;8.696;2024-03-07T03:02:47;6.70;99.90
22742;DHT22;11538;48.884;8.696;2024-03-07T03:05:16;6.70;99.90
22742;DHT22;11538;48.884;8.696;2024-03-07T03:07:45;6.70;99.90
22742;DHT22;11538;48.884;8.696;2024-03-07T03:10:24;6.70;99.90
22742;DHT22;11538;48.884;8.696;2024-03-07T03:12:59;6.60;99.90
22742;DHT22;11538;48.884;8.696;2024-03-07T03:15:28;6.60;99.90
22742;DHT22;11538;48.884;8.696;2024-03-07T03:17:57;6.60;99.90
22742;DHT22;11538;48.884;8.696;2024-03-07T03:20:28;6.50;99.90
22742;DHT22;11538;48.884;8.696;2024-03-07T03:23:02;6.50;99.90
22742;DHT22;11538;48.884;8.696;2024-03-07T03:25:45;6.40;99.90
22742;DHT22;11538;48.884;8.696;2024-03-07T03:28:14;6.40;99.90
22742;DHT22;11538;48.884;8.696;2024-03-07T03:30:41;6.40;99.90
22742;DHT22;11538;48.884;8.696;2024-03-07T03:33:10;6.40;99.90
22742;DHT22;11538;48.884;8.696;2024-03-07T03:35:38;6.40;99.90
22742;DHT22;11538;48.884;8.696;2024-03-07T03:38:06;6.40;99.90
22742;DHT22;11538;48.884;8.696;2024-03-07T03:40:34;6.30;99.90
22742;DHT22;11538;48.884;8.696;2024-03-07T03:43:02;6.30;99.90
22742;DHT22;11538;48.884;8.696;2024-03-07T03:45:29;6.20;99.90
22742;DHT22;11538;48.884;8.696;2024-03-07T03:47:58;6.20;99.90
22742;DHT22;11538;48.884;8.696;2024-03-07T03:50:26;6.20;99.90
22742;DHT22;11538;48.884;8.696;2024-03-07T03:52:53;6.10;99.90
22742;DHT22;11538;48.884;8.696;2024-03-07T03:55:20;6.10;99.90
22742;DHT22;11538;48.884;8.696;2024-03-07T03:57:48;6.10;99.90
22742;DHT22;11538;48.884;8.696;2024-03-07T04:00:15;6.00;99.90
22742;DHT22;11538;48.884;8.696;2024-03-07T04:02:45;6.00;99.90
22742;DHT22;11538;48.884;8.696;2024-03-07T04:05:18;5.90;99.90
22742;DHT22;11538;48.884;8.696;2024-03-07T04:07:47;5.90;99.90
22742;DHT22;11538;48.884;8.696;2024-03-07T04:10:16;5.80;99.90
22742;DHT22;11538;48.884;8.696;2024-03-07T04:12:44;5.80;99.90
22742;DHT22;11538;48.884;8.696;2024-03-07T04:15:14;5.80;99.90
22742;DHT22;11538;48.884;8.696;2024-03-07T04:17:46;5.70;99.90
22742;DHT22;11538;48.884;8.696;2024-03-07T04:20:15;5.80;99.90
22742;DHT22;11538;48.884;8.696;2024-03-07T04:22:46;5.70;99.90
22742;DHT22;11538;48.884;8.696;2024-03-07T04:25:13;5.70;99.90
22742;DHT22;11538;48.884;8.696;2024-03-07T04:27:41;5.70;99.90
22742;DHT22;11538;48.884;8.696;2024-03-07T04:30:08;5.70;99.90
22742;DHT22;11538;48.884;8.696;2024-03-07T04:32:38;5.60;99.90
22742;DHT22;11538;48.884;8.696;2024-03-07T04:35:08;5.60;99.90
22742;DHT22;11538;48.884;8.696;2024-03-07T04:37:41;5.50;99.90
22742;DHT22;11538;48.884;8.696;2024-03-07T04:40:09;5.50;99.90
22742;DHT22;11538;48.884;8.696;2024-03-07T04:42:47;5.50;99.90
22742;DHT22;11538;48.884;8.696;2024-03-07T04:45:16;5.50;99.90
22742;DHT22;11538;48.884;8.696;2024-03-07T04:47:44;5.40;99.90
22742;DHT22;11538;48.884;8.696;2024-03-07T04:50:13;5.40;99.90
22742;DHT22;11538;48.884;8.696;2024-03-07T04:52:44;5.40;99.90
22742;DHT22;11538;48.884;8.696;2024-03-07T04:55:13;5.40;99.90
22742;DHT22;11538;48.884;8.696;2024-03-07T04:57:40;5.40;99.90
22742;DHT22;11538;48.884;8.696;2024-03-07T05:00:12;5.30;99.90
22742;DHT22;11538;48.884;8.696;2024-03-07T05:02:44;5.30;99.90
22742;DHT22;11538;48.884;8.696;2024-03-07T05:05:14;5.20;99.90
22742;DHT22;11538;48.884;8.696;2024-03-07T05:07:41;5.20;99.90
22742;DHT22;11538;48.884;8.696;2024-03-07T05:10:09;5.10;99.90
22742;DHT22;11538;48.884;8.696;2024-03-07T05:12:36;5.10;99.90
22742;DHT22;11538;48.884;8.696;2024-03-07T05:15:05;5.10;99.90
22742;DHT22;11538;48.884;8.696;2024-03-07T05:17:32;5.00;99.90
22742;DHT22;11538;48.884;8.696;2024-03-07T05:20:02;5.00;99.90
22742;DHT22;11538;48.884;8.696;2024-03-07T05:22:36;5.00;99.90
22742;DHT22;11538;48.884;8.696;2024-03-07T05:25:19;4.90;99.90
22742;DHT22;11538;48.884;8.696;2024-03-07T05:27:46;4.80;99.90
22742;DHT22;11538;48.884;8.696;2024-03-07T05:30:16;4.80;99.90
22742;DHT22;11538;48.884;8.696;2024-03-07T05:32:43;4.80;99.90
22742;DHT22;11538;48.884;8.696;2024-03-07T05:35:10;4.70;99.90
22742;DHT22;11538;48.884;8.696;2024-03-07T05:37:38;4.70;99.90
22742;DHT22;11538;48.884;8.696;2024-03-07T05:40:09;4.60;99.90
22742;DHT22;11538;48.884;8.696;2024-03-07T05:42:36;4.50;99.90
22742;DHT22;11538;48.884;8.696;2024-03-07T05:45:03;4.50;99.90
22742;DHT22;11538;48.884;8.696;2024-03-07T05:47:34;4.50;99.90
22742;DHT22;11538;48.884;8.696;2024-03-07T05:50:01;4.50;99.90
22742;DHT22;11538;48.884;8.696;2024-03-07T05:52:28;4.40;99.90
22742;DHT22;11538;48.884;8.696;2024-03-07T05:54:55;4.40;99.90
22742;DHT22;11538;48.884;8.696;2024-03-07T05:57:23;4.40;99.90
22742;DHT22;11538;48.884;8.696;2024-03-07T05:59:50;4.30;99.90
22742;DHT22;11538;48.884;8.696;2024-03-07T06:02:17;4.30;99.90
22742;DHT22;11538;48.884;8.696;2024-03-07T06:04:46;4.30;99.90
22742;DHT22;11538;48.884;8.696;2024-03-07T06:07:12;4.30;99.90
22742;DHT22;11538;48.884;8.696;2024-03-07T06:09:39;4.30;99.90
22742;DHT22;11538;48.884;8.696;2024-03-07T06:12:06;4.30;99.90
22742;DHT22;11538;48.884;8.696;2024-03-07T06:14:48;4.30;99.90
22742;DHT22;11538;48.884;8.696;2024-03-07T06:17:16;4.20;99.90
22742;DHT22;11538;48.884;8.696;2024-03-07T06:19:46;4.20;99.90
22742;DHT22;11538;48.884;8.696;2024-03-07T06:22:14;4.20;99.90
22742;DHT22;11538;48.884;8.696;2024-03-07T06:24:41;4.20;99.90
22742;DHT22;11538;48.884;8.696;2024-03-07T06:27:09;4.20;99.90
22742;DHT22;11538;48.884;8.696;2024-03-07T06:29:43;4.20;99.90
22742;DHT22;11538;48.884;8.696;2024-03-07T06:32:10;4.30;99.90
22742;DHT22;11538;48.884;8.696;2024-03-07T06:34:37;4.20;99.90
22742;DHT22;11538;48.884;8.696;2024-03-07T06:37:05;4.20;99.90
22742;DHT22;11538;48.884;8.696;2024-03-07T06:39:32;4.30;99.90
22742;DHT22;11538;48.884;8.696;2024-03-07T06:41:59;4.30;99.90
22742;DHT22;11538;48.884;8.696;2024-03-07T06:44:27;4.30;99.90
22742;DHT22;11538;48.884;8.696;2024-03-07T06:46:54;4.30;99.90
22742;DHT22;11538;48.884;8.696;2024-03-07T06:49:21;4.30;99.90
22742;DHT22;11538;48.884;8.696;2024-03-07T06:51:48;4.30;99.90
22742;DHT22;11538;48.884;8.696;2024-03-07T06:54:15;4.30;99.90
22742;DHT22;11538;48.884;8.696;2024-03-07T06:56:42;4.40;99.90
22742;DHT22;11538;48.884;8.696;2024-03-07T06:59:10;4.50;99.90
22742;DHT22;11538;48.884;8.696;2024-03-07T07:01:37;4.40;99.90
22742;DHT22;11538;48.884;8.696;2024-03-07T07:04:06;4.50;99.90
22742;DHT22;11538;48.884;8.696;2024-03-07T07:06:35;4.50;99.90
22742;DHT22;11538;48.884;8.696;2024-03-07T07:09:02;4.60;99.90
22742;DHT22;11538;48.884;8.696;2024-03-07T07:11:30;4.60;99.90
22742;DHT22;11538;48.884;8.696;2024-03-07T07:14:01;4.70;99.90
22742;DHT22;11538;48.884;8.696;2024-03-07T07:16:31;4.70;99.90
22742;DHT22;11538;48.884;8.696;2024-03-07T07:19:00;4.80;99.90
22742;DHT22;11538;48.884;8.696;2024-03-07T07:21:27;4.80;99.90
22742;DHT22;11538;48.884;8.696;2024-03-07T07:23:54;4.80;99.90
22742;DHT22;11538;48.884;8.696;2024-03-07T07:26:21;4.80;99.90
22742;DHT22;11538;48.884;8.696;2024-03-07T07:28:48;4.80;99.90
22742;DHT22;11538;48.884;8.696;2024-03-07T07:31:15;4.90;99.90
22742;DHT22;11538;48.884;8.696;2024-03-07T07:33:42;4.90;99.90
22742;DHT22;11538;48.884;8.696;2024-03-07T07:36:10;5.00;99.90
22742;DHT22;11538;48.884;8.696;2024-03-07T07:38:37;5.00;99.90
22742;DHT22;11538;48.884;8.696;2024-03-07T07:41:04;5.00;99.90
22742;DHT22;11538;48.884;8.696;2024-03-07T07:43:32;5.10;99.90
22742;DHT22;11538;48.884;8.696;2024-03-07T07:46:09;5.10;99.90
22742;DHT22;11538;48.884;8.696;2024-03-07T07:48:36;5.10;99.90
22742;DHT22;11538;48.884;8.696;2024-03-07T07:51:03;5.10;99.90
22742;DHT22;11538;48.884;8.696;2024-03-07T07:53:32;5.20;99.90
22742;DHT22;11538;48.884;8.696;2024-03-07T07:55:59;5.20;99.90
22742;DHT22;11538;48.884;8.696;2024-03-07T07:58:26;5.30;99.90
22742;DHT22;11538;48.884;8.696;2024-03-07T08:00:53;5.40;99.90
22742;DHT22;11538;48.884;8.696;2024-03-07T08:03:20;5.40;99.90
22742;DHT22;11538;48.884;8.696;2024-03-07T08:05:48;5.50;99.90
22742;DHT22;11538;48.884;8.696;2024-03-07T08:08:15;5.60;99.90
22742;DHT22;11538;48.884;8.696;2024-03-07T08:10:45;5.70;99.90
22742;DHT22;11538;48.884;8.696;2024-03-07T08:13:15;5.80;99.90
22742;DHT22;11538;48.884;8.696;2024-03-07T08:15:42;5.90;99.90
22742;DHT22;11538;48.884;8.696;2024-03-07T08:18:09;6.00;99.90
22742;DHT22;11538;48.884;8.696;2024-03-07T08:20:38;6.10;99.90
22742;DHT22;11538;48.884;8.696;2024-03-07T08:23:08;6.20;99.90
22742;DHT22;11538;48.884;8.696;2024-03-07T08:25:36;6.30;99.90
22742;DHT22;11538;48.884;8.696;2024-03-07T08:28:03;6.40;99.90
22742;DHT22;11538;48.884;8.696;2024-03-07T08:30:32;6.50;99.90
22742;DHT22;11538;48.884;8.696;2024-03-07T08:32:59;6.60;99.90
22742;DHT22;11538;48.884;8.696;2024-03-07T08:35:31;6.70;99.90
22742;DHT22;11538;48.884;8.696;2024-03-07T08:37:58;6.90;99.90
22742;DHT22;11538;48.884;8.696;2024-03-07T08:40:27;7.00;99.90
22742;DHT22;11538;48.884;8.696;2024-03-07T08:42:59;7.20;99.90
22742;DHT22;11538;48.884;8.696;2024-03-07T08:45:27;7.30;99.90
22742;DHT22;11538;48.884;8.696;2024-03-07T08:47:56;7.50;99.90
22742;DHT22;11538;48.884;8.696;2024-03-07T08:50:26;7.70;99.90
22742;DHT22;11538;48.884;8.696;2024-03-07T08:52:54;7.90;99.90
22742;DHT22;11538;48.884;8.696;2024-03-07T08:55:25;8.10;99.90
22742;DHT22;11538;48.884;8.696;2024-03-07T08:57:53;8.20;99.90
22742;DHT22;11538;48.884;8.696;2024-03-07T09:00:20;8.30;99.90
22742;DHT22;11538;48.884;8.696;2024-03-07T09:02:54;8.40;99.90
22742;DHT22;11538;48.884;8.696;2024-03-07T09:05:29;8.70;99.90
22742;DHT22;11538;48.884;8.696;2024-03-07T09:08:00;8.80;99.90
22742;DHT22;11538;48.884;8.696;2024-03-07T09:10:27;8.90;99.90
22742;DHT22;11538;48.884;8.696;2024-03-07T09:12:57;9.00;99.90
22742;DHT22;11538;48.884;8.696;2024-03-07T09:15:25;9.10;99.90
22742;DHT22;11538;48.884;8.696;2024-03-07T09:17:53;9.30;99.90
22742;DHT22;11538;48.884;8.696;2024-03-07T09:20:20;9.40;99.90
22742;DHT22;11538;48.884;8.696;2024-03-07T09:22:48;9.50;99.90
22742;DHT22;11538;48.884;8.696;2024-03-07T09:25:17;9.60;99.90
22742;DHT22;11538;48.884;8.696;2024-03-07T09:27:46;9.60;99.90
22742;DHT22;11538;48.884;8.696;2024-03-07T09:30:13;9.70;99.90
22742;DHT22;11538;48.884;8.696;2024-03-07T09:32:48;9.60;99.90
22742;DHT22;11538;48.884;8.696;2024-03-07T09:35:16;9.60;99.90
22742;DHT22;11538;48.884;8.696;2024-03-07T09:37:44;9.40;99.90
22742;DHT22;11538;48.884;8.696;2024-03-07T09:40:12;9.20;99.90
22742;DHT22;11538;48.884;8.696;2024-03-07T09:42:49;9.00;99.90
22742;DHT22;11538;48.884;8.696;2024-03-07T09:45:20;8.90;99.90
22742;DHT22;11538;48.884;8.696;2024-03-07T09:47:50;8.80;99.90
22742;DHT22;11538;48.884;8.696;2024-03-07T09:50:21;8.70;99.90
22742;DHT22;11538;48.884;8.696;2024-03-07T09:52:52;8.70;99.90
22742;DHT22;11538;48.884;8.696;2024-03-07T09:55:22;8.50;99.90
22742;DHT22;11538;48.884;8.696;2024-03-07T09:57:53;8.40;99.90
22742;DHT22;11538;48.884;8.696;2024-03-07T10:00:23;8.40;99.90
22742;DHT22;11538;48.884;8.696;2024-03-07T10:03:02;8.30;99.90
22742;DHT22;11538;48.884;8.696;2024-03-07T10:05:31;8.20;99.90
22742;DHT22;11538;48.884;8.696;2024-03-07T10:08:00;8.10;99.90
22742;DHT22;11538;48.884;8.696;2024-03-07T10:10:27;8.10;99.90
22742;DHT22;11538;48.884;8.696;2024-03-07T10:12:56;8.10;99.90
22742;DHT22;11538;48.884;8.696;2024-03-07T10:15:30;8.00;99.90
22742;DHT22;11538;48.884;8.696;2024-03-07T10:17:59;7.90;99.90
22742;DHT22;11538;48.884;8.696;2024-03-07T10:20:28;7.90;99.90
22742;DHT22;11538;48.884;8.696;2024-03-07T10:22:56;7.80;99.90
22742;DHT22;11538;48.884;8.696;2024-03-07T10:25:24;7.70;99.90
22742;DHT22;11538;48.884;8.696;2024-03-07T10:27:53;7.80;99.90
22742;DHT22;11538;48.884;8.696;2024-03-07T10:30:21;7.80;99.90
22742;DHT22;11538;48.884;8.696;2024-03-07T10:32:55;7.80;99.90
22742;DHT22;11538;48.884;8.696;2024-03-07T10:35:28;7.90;99.90
22742;DHT22;11538;48.884;8.696;2024-03-07T10:37:58;7.90;99.90
22742;DHT22;11538;48.884;8.696;2024-03-07T10:40:33;7.90;99.90
22742;DHT22;11538;48.884;8.696;2024-03-07T10:43:07;8.00;99.90
22742;DHT22;11538;48.884;8.696;2024-03-07T10:45:47;8.00;99.90
22742;DHT22;11538;48.884;8.696;2024-03-07T10:48:20;8.10;99.90
22742;DHT22;11538;48.884;8.696;2024-03-07T10:57:03;8.20;99.90
22742;DHT22;11538;48.884;8.696;2024-03-07T10:59:50;8.20;99.90
22742;DHT22;11538;48.884;8.696;2024-03-07T11:02:33;8.30;99.90
22742;DHT22;11538;48.884;8.696;2024-03-07T11:05:06;8.40;99.90
22742;DHT22;11538;48.884;8.696;2024-03-07T11:07:39;8.50;99.90
22742;DHT22;11538;48.884;8.696;2024-03-07T11:10:08;8.60;99.90
22742;DHT22;11538;48.884;8.696;2024-03-07T11:12:39;8.60;99.90
22742;DHT22;11538;48.884;8.696;2024-03-07T11:15:09;8.60;99.90
22742;DHT22;11538;48.884;8.696;2024-03-07T11:17:43;8.70;99.90
22742;DHT22;11538;48.884;8.696;2024-03-07T11:20:26;8.90;99.90
22742;DHT22;11538;48.884;8.696;2024-03-07T11:23:00;9.30;99.90
22742;DHT22;11538;48.884;8.696;2024-03-07T11:25:29;9.80;99.90
22742;DHT22;11538;48.884;8.696;2024-03-07T11:27:58;10.30;99.90
22742;DHT22;11538;48.884;8.696;2024-03-07T11:30:27;10.70;99.90
22742;DHT22;11538;48.884;8.696;2024-03-07T11:32:55;10.80;99.90
22742;DHT22;11538;48.884;8.696;2024-03-07T11:35:32;11.00;99.90
22742;DHT22;11538;48.884;8.696;2024-03-07T11:38:06;11.00;99.90
22742;DHT22;11538;48.884;8.696;2024-03-07T11:43:02;10.90;99.90
22742;DHT22;11538;48.884;8.696;2024-03-07T11:45:32;11.00;99.90
22742;DHT22;11538;48.884;8.696;2024-03-07T11:48:05;11.00;99.90
22742;DHT22;11538;48.884;8.696;2024-03-07T11:50:40;11.00;99.90
22742;DHT22;11538;48.884;8.696;2024-03-07T11:53:09;10.90;99.90
22742;DHT22;11538;48.884;8.696;2024-03-07T11:55:38;10.90;99.90
22742;DHT22;11538;48.884;8.696;2024-03-07T11:58:20;10.80;99.90
22742;DHT22;11538;48.884;8.696;2024-03-07T12:00:51;10.70;99.90
22742;DHT22;11538;48.884;8.696;2024-03-07T12:03:20;10.70;99.90
22742;DHT22;11538;48.884;8.696;2024-03-07T12:05:49;10.60;99.90
22742;DHT22;11538;48.884;8.696;2024-03-07T12:08:18;10.60;99.90
22742;DHT22;11538;48.884;8.696;2024-03-07T12:10:49;10.60;99.90
22742;DHT22;11538;48.884;8.696;2024-03-07T12:13:21;10.50;99.90
22742;DHT22;11538;48.884;8.696;2024-03-07T12:15:48;10.40;99.90
22742;DHT22;11538;48.884;8.696;2024-03-07T12:18:19;10.30;99.90
22742;DHT22;11538;48.884;8.696;2024-03-07T12:20:49;10.30;99.90
22742;DHT22;11538;48.884;8.696;2024-03-07T12:23:24;10.20;99.90
22742;DHT22;11538;48.884;8.696;2024-03-07T12:26:02;10.10;99.90
22742;DHT22;11538;48.884;8.696;2024-03-07T12:28:30;10.10;99.90
22742;DHT22;11538;48.884;8.696;2024-03-07T12:31:02;10.00;99.90
22742;DHT22;11538;48.884;8.696;2024-03-07T12:33:31;10.00;99.90
22742;DHT22;11538;48.884;8.696;2024-03-07T12:36:06;10.00;99.90
22742;DHT22;11538;48.884;8.696;2024-03-07T12:38:36;9.90;99.90
22742;DHT22;11538;48.884;8.696;2024-03-07T12:41:08;9.90;99.90
22742;DHT22;11538;48.884;8.696;2024-03-07T12:43:42;9.90;99.90
22742;DHT22;11538;48.884;8.696;2024-03-07T12:46:13;9.90;99.90
22742;DHT22;11538;48.884;8.696;2024-03-07T12:48:42;9.80;99.90
22742;DHT22;11538;48.884;8.696;2024-03-07T12:51:13;9.80;99.90
22742;DHT22;11538;48.884;8.696;2024-03-07T12:53:46;9.70;99.90
22742;DHT22;11538;48.884;8.696;2024-03-07T12:56:14;9.70;99.90
22742;DHT22;11538;48.884;8.696;2024-03-07T12:58:46;9.70;99.90
22742;DHT22;11538;48.884;8.696;2024-03-07T13:01:16;9.70;99.90
22742;DHT22;11538;48.884;8.696;2024-03-07T13:03:46;9.70;99.90
22742;DHT22;11538;48.884;8.696;2024-03-07T13:06:14;9.70;99.90
22742;DHT22;11538;48.884;8.696;2024-03-07T13:08:42;9.70;99.90
22742;DHT22;11538;48.884;8.696;2024-03-07T13:11:10;9.70;99.90
22742;DHT22;11538;48.884;8.696;2024-03-07T13:13:38;9.70;99.90
22742;DHT22;11538;48.884;8.696;2024-03-07T13:16:05;9.70;99.90
22742;DHT22;11538;48.884;8.696;2024-03-07T13:18:33;9.60;99.90
22742;DHT22;11538;48.884;8.696;2024-03-07T13:21:02;9.70;99.90
22742;DHT22;11538;48.884;8.696;2024-03-07T13:23:34;9.60;99.90
22742;DHT22;11538;48.884;8.696;2024-03-07T13:26:03;9.60;99.90
22742;DHT22;11538;48.884;8.696;2024-03-07T13:28:35;9.60;99.90
22742;DHT22;11538;48.884;8.696;2024-03-07T13:31:02;9.60;99.90
22742;DHT22;11538;48.884;8.696;2024-03-07T13:33:30;9.60;99.90
22742;DHT22;11538;48.884;8.696;2024-03-07T13:35:58;9.50;99.90
22742;DHT22;11538;48.884;8.696;2024-03-07T13:38:27;9.50;99.90
22742;DHT22;11538;48.884;8.696;2024-03-07T13:40:54;9.50;99.90
22742;DHT22;11538;48.884;8.696;2024-03-07T13:43:21;9.50;99.90
22742;DHT22;11538;48.884;8.696;2024-03-07T13:45:48;9.50;99.90
22742;DHT22;11538;48.884;8.696;2024-03-07T13:48:15;9.50;99.90
22742;DHT22;11538;48.884;8.696;2024-03-07T13:50:47;9.50;99.90
22742;DHT22;11538;48.884;8.696;2024-03-07T13:53:30;9.40;99.90
22742;DHT22;11538;48.884;8.696;2024-03-07T13:56:34;9.40;99.90
22742;DHT22;11538;48.884;8.696;2024-03-07T13:59:31;9.50;99.90
22742;DHT22;11538;48.884;8.696;2024-03-07T14:02:04;9.50;99.90
22742;DHT22;11538;48.884;8.696;2024-03-07T14:31:48;9.50;99.90
22742;DHT22;11538;48.884;8.696;2024-03-07T14:34:37;9.50;99.90
22742;DHT22;11538;48.884;8.696;2024-03-07T14:37:40;9.50;99.90
22742;DHT22;11538;48.884;8.696;2024-03-07T14:40:17;9.50;99.90
22742;DHT22;11538;48.884;8.696;2024-03-07T14:42:48;9.50;99.90
22742;DHT22;11538;48.884;8.696;2024-03-07T14:45:21;9.60;99.90
22742;DHT22;11538;48.884;8.696;2024-03-07T14:47:52;9.60;99.90
22742;DHT22;11538;48.884;8.696;2024-03-07T14:50:20;9.60;99.90
22742;DHT22;11538;48.884;8.696;2024-03-07T14:52:49;9.60;99.90
22742;DHT22;11538;48.884;8.696;2024-03-07T14:55:18;9.60;99.90
22742;DHT22;11538;48.884;8.696;2024-03-07T14:57:46;9.60;99.90
22742;DHT22;11538;48.884;8.696;2024-03-07T15:00:13;9.60;99.90
22742;DHT22;11538;48.884;8.696;2024-03-07T15:02:59;9.70;99.90
22742;DHT22;11538;48.884;8.696;2024-03-07T15:05:27;9.70;99.90
22742;DHT22;11538;48.884;8.696;2024-03-07T15:07:55;9.70;99.90
22742;DHT22;11538;48.884;8.696;2024-03-07T15:13:02;9.80;99.90
22742;DHT22;11538;48.884;8.696;2024-03-07T15:15:34;9.90;99.90
22742;DHT22;11538;48.884;8.696;2024-03-07T15:18:02;9.90;99.90
22742;DHT22;11538;48.884;8.696;2024-03-07T15:20:30;9.80;99.90
22742;DHT22;11538;48.884;8.696;2024-03-07T15:23:01;9.80;99.90
22742;DHT22;11538;48.884;8.696;2024-03-07T15:25:33;9.80;99.90
22742;DHT22;11538;48.884;8.696;2024-03-07T15:28:03;9.80;99.90
22742;DHT22;11538;48.884;8.696;2024-03-07T15:30:31;9.70;99.90
22742;DHT22;11538;48.884;8.696;2024-03-07T15:33:05;9.70;99.90
22742;DHT22;11538;48.884;8.696;2024-03-07T15:35:32;9.70;99.90
22742;DHT22;11538;48.884;8.696;2024-03-07T15:38:00;9.70;99.90
22742;DHT22;11538;48.884;8.696;2024-03-07T15:40:31;9.70;99.90
22742;DHT22;11538;48.884;8.696;2024-03-07T15:42:59;9.70;99.90
22742;DHT22;11538;48.884;8.696;2024-03-07T15:45:28;9.70;99.90
22742;DHT22;11538;48.884;8.696;2024-03-07T15:47:59;9.70;99.90
22742;DHT22;11538;48.884;8.696;2024-03-07T15:50:44;9.60;99.90
22742;DHT22;11538;48.884;8.696;2024-03-07T15:53:11;9.60;99.90
22742;DHT22;11538;48.884;8.696;2024-03-07T15:55:38;9.60;99.90
22742;DHT22;11538;48.884;8.696;2024-03-07T15:58:05;9.60;99.90
22742;DHT22;11538;48.884;8.696;2024-03-07T16:00:33;9.60;99.90
22742;DHT22;11538;48.884;8.696;2024-03-07T16:03:05;9.50;99.90
22742;DHT22;11538;48.884;8.696;2024-03-07T16:05:41;9.50;99.90
22742;DHT22;11538;48.884;8.696;2024-03-07T16:08:15;9.50;99.90
22742;DHT22;11538;48.884;8.696;2024-03-07T16:10:45;9.50;99.90
22742;DHT22;11538;48.884;8.696;2024-03-07T16:13:15;9.50;99.90
22742;DHT22;11538;48.884;8.696;2024-03-07T16:15:44;9.40;99.90
22742;DHT22;11538;48.884;8.696;2024-03-07T16:18:12;9.40;99.90
22742;DHT22;11538;48.884;8.696;2024-03-07T16:20:41;9.40;99.90
22742;DHT22;11538;48.884;8.696;2024-03-07T16:23:14;9.40;99.90
22742;DHT22;11538;48.884;8.696;2024-03-07T16:25:43;9.30;99.90
22742;DHT22;11538;48.884;8.696;2024-03-07T16:28:14;9.30;99.90
22742;DHT22;11538;48.884;8.696;2024-03-07T16:30:42;9.30;99.90
22742;DHT22;11538;48.884;8.696;2024-03-07T16:33:13;9.20;99.90
22742;DHT22;11538;48.884;8.696;2024-03-07T16:35:44;9.20;99.90
22742;DHT22;11538;48.884;8.696;2024-03-07T16:38:12;9.10;99.90